createdAt,value
2019-01-29T00:02:13.718Z,64.65
2019-01-29T00:07:31.681Z,65.12
2019-01-29T00:12:49.629Z,65.47
2019-01-29T00:18:06.776Z,65.27
2019-01-29T00:23:24.753Z,68.65
2019-01-29T00:28:42.438Z,68.12
2019-01-29T00:33:59.666Z,66.98
2019-01-29T00:39:18.164Z,67.85
2019-01-29T00:44:36.281Z,67.00
2019-01-29T00:49:53.901Z,67.17
2019-01-29T00:55:11.452Z,67.28
2019-01-29T01:00:29.538Z,67.14
2019-01-29T01:05:47.310Z,67.89
2019-01-29T01:11:04.913Z,67.38
2019-01-29T01:16:22.879Z,67.79
2019-01-29T01:21:40.641Z,67.26
2019-01-29T01:26:58.188Z,67.42
2019-01-29T01:32:15.359Z,67.19
2019-01-29T01:37:33.463Z,66.78
2019-01-29T01:42:51.009Z,67.32
2019-01-29T01:48:08.330Z,66.80
2019-01-29T01:53:26.423Z,67.32
2019-01-29T01:58:44.903Z,67.16
2019-01-29T02:04:02.949Z,67.13
2019-01-29T02:09:20.152Z,67.04
2019-01-29T02:14:37.525Z,67.43
2019-01-29T02:19:55.353Z,67.92
2019-01-29T02:25:12.783Z,67.89
2019-01-29T02:30:30.357Z,67.94
2019-01-29T02:35:47.588Z,67.68
2019-01-29T02:41:04.863Z,68.13
2019-01-29T02:46:22.912Z,67.38
2019-01-29T02:51:40.530Z,67.60
2019-01-29T02:56:57.750Z,68.24
2019-01-29T03:02:14.979Z,67.86
2019-01-29T03:07:32.798Z,68.48
2019-01-29T03:12:50.543Z,69.06
2019-01-29T03:18:08.180Z,68.47
2019-01-29T03:23:27.507Z,68.11
2019-01-29T03:28:45.105Z,68.92
2019-01-29T03:34:03.232Z,68.82
2019-01-29T03:39:21.333Z,68.96
2019-01-29T03:44:39.250Z,69.52
2019-01-29T03:49:56.555Z,70.32
2019-01-29T03:55:14.849Z,69.52
2019-01-29T04:00:32.362Z,69.65
2019-01-29T04:05:50.827Z,69.72
2019-01-29T04:11:08.223Z,70.11
2019-01-29T04:16:25.910Z,70.30
2019-01-29T04:21:44.456Z,70.15
2019-01-29T04:27:02.156Z,70.23
2019-01-29T04:32:19.665Z,70.60
2019-01-29T04:37:37.355Z,70.44
2019-01-29T04:42:54.964Z,69.87
2019-01-29T04:48:13.077Z,68.90
2019-01-29T04:53:30.737Z,68.45
2019-01-29T04:58:47.740Z,68.00
2019-01-29T05:04:05.738Z,68.83
2019-01-29T05:09:26.145Z,68.14
2019-01-29T05:14:44.247Z,69.35
2019-01-29T05:20:10.191Z,68.64
2019-01-29T05:25:27.758Z,68.00
2019-01-29T05:30:45.608Z,67.75
2019-01-29T05:36:05.797Z,67.45
2019-01-29T05:41:23.685Z,67.91
2019-01-29T05:46:42.237Z,67.96
2019-01-29T05:52:00.901Z,67.55
2019-01-29T05:57:18.607Z,66.49
2019-01-29T06:02:37.195Z,66.52
2019-01-29T06:08:02.441Z,66.23
2019-01-29T06:13:19.593Z,66.60
2019-01-29T06:18:36.805Z,65.35
2019-01-29T06:23:54.349Z,65.86
2019-01-29T06:29:11.678Z,65.66
2019-01-29T06:34:29.739Z,66.10
2019-01-29T06:39:47.569Z,64.64
2019-01-29T06:45:06.100Z,65.34
2019-01-29T06:50:24.253Z,64.88
2019-01-29T06:55:41.431Z,64.12
2019-01-29T07:00:58.988Z,63.93
2019-01-29T07:06:16.985Z,63.53
2019-01-29T07:11:34.252Z,64.57
2019-01-29T07:17:15.381Z,63.82
2019-01-29T07:22:32.989Z,63.71
2019-01-29T07:27:50.413Z,64.29
2019-01-29T07:33:08.613Z,62.99
2019-01-29T07:38:25.794Z,64.00
2019-01-29T07:43:43.139Z,63.89
2019-01-29T07:49:02.435Z,63.60
2019-01-29T07:54:20.373Z,62.69
2019-01-29T07:59:37.725Z,63.35
2019-01-29T08:04:55.435Z,62.52
2019-01-29T08:10:14.000Z,64.09
2019-01-29T08:15:31.417Z,62.47
2019-01-29T08:20:49.383Z,62.42
2019-01-29T08:26:07.385Z,61.19
2019-01-29T08:31:25.611Z,61.87
2019-01-29T08:36:43.137Z,61.58
2019-01-29T08:42:00.873Z,61.98
2019-01-29T08:47:18.265Z,61.53
2019-01-29T08:52:36.257Z,59.77
2019-01-29T08:57:55.460Z,61.10
2019-01-29T09:03:11.900Z,60.71
2019-01-29T09:08:29.555Z,60.37
2019-01-29T09:13:47.106Z,61.19
2019-01-29T09:19:04.762Z,60.80
2019-01-29T09:24:22.786Z,61.66
2019-01-29T09:29:40.859Z,62.14
2019-01-29T09:34:58.129Z,61.34
2019-01-29T09:40:16.489Z,61.63
2019-01-29T09:45:34.545Z,60.98
2019-01-29T09:50:52.252Z,60.49
2019-01-29T09:56:10.195Z,60.38
2019-01-29T10:01:27.472Z,59.50
2019-01-29T10:06:44.779Z,60.00
2019-01-29T10:12:03.176Z,59.32
2019-01-29T10:17:20.337Z,59.68
2019-01-29T10:22:38.075Z,57.81
2019-01-29T10:27:56.083Z,58.21
2019-01-29T10:33:13.946Z,58.70
2019-01-29T10:38:31.523Z,59.49
2019-01-29T10:43:48.989Z,59.68
2019-01-29T10:49:07.550Z,60.29
2019-01-29T10:54:25.598Z,60.58
2019-01-29T10:59:43.481Z,59.72
2019-01-29T11:05:01.410Z,59.84
2019-01-29T11:10:19.063Z,59.30
2019-01-29T11:15:37.531Z,58.75
2019-01-29T11:20:55.247Z,58.15
2019-01-29T11:26:13.392Z,57.56
2019-01-29T11:31:31.461Z,58.69
2019-01-29T11:36:49.122Z,59.15
2019-01-29T11:42:09.089Z,58.61
2019-01-29T11:47:26.629Z,58.89
2019-01-29T11:52:44.303Z,58.33
2019-01-29T11:58:01.608Z,56.02
2019-01-29T12:03:19.045Z,54.50
2019-01-29T12:08:37.797Z,50.19
2019-01-29T12:13:55.743Z,49.93
2019-01-29T12:19:13.442Z,48.56
2019-01-29T12:24:32.114Z,49.15
2019-01-29T12:29:50.724Z,44.57
2019-01-29T12:35:09.037Z,46.65
2019-01-29T12:40:26.879Z,46.17
2019-01-29T12:45:44.430Z,47.68
2019-01-29T12:51:02.694Z,50.66
2019-01-29T12:56:21.565Z,51.91
2019-01-29T13:01:39.526Z,52.63
2019-01-29T13:06:57.492Z,52.61
2019-01-29T13:12:15.145Z,47.38
2019-01-29T13:17:33.690Z,43.64
2019-01-29T13:22:51.264Z,38.14
2019-01-29T13:28:09.289Z,41.90
2019-01-29T13:33:27.989Z,43.58
2019-01-29T13:38:45.218Z,45.18
2019-01-29T13:44:02.484Z,47.35
2019-01-29T13:49:19.939Z,50.39
2019-01-29T13:54:38.563Z,52.93
2019-01-29T14:00:23.506Z,54.00
2019-01-29T14:05:41.365Z,55.26
2019-01-29T14:10:58.423Z,58.27
2019-01-29T14:16:16.224Z,63.15
2019-01-29T14:21:34.307Z,65.02
2019-01-29T14:26:52.172Z,67.49
2019-01-29T14:32:11.621Z,68.47
2019-01-29T14:37:29.316Z,68.83
2019-01-29T14:42:48.600Z,68.71
2019-01-29T14:48:06.323Z,69.03
2019-01-29T14:53:23.914Z,69.04
2019-01-29T14:58:41.799Z,68.03
2019-01-29T15:03:59.455Z,70.68
2019-01-29T15:09:17.796Z,70.83
2019-01-29T15:14:37.059Z,73.41
2019-01-29T15:19:54.546Z,75.58
2019-01-29T15:25:12.469Z,76.48
2019-01-29T15:30:30.187Z,73.55
2019-01-29T15:35:47.562Z,75.92
2019-01-29T15:41:05.404Z,75.86
2019-01-29T15:46:23.723Z,75.70
2019-01-29T15:51:41.934Z,73.91
2019-01-29T15:56:59.800Z,73.39
2019-01-29T16:02:18.069Z,74.44
2019-01-29T16:07:36.439Z,74.67
2019-01-29T16:12:53.986Z,73.47
2019-01-29T16:18:11.992Z,74.43
2019-01-29T16:23:29.289Z,74.12
2019-01-29T16:28:47.934Z,75.72
2019-01-29T16:34:06.013Z,75.73
2019-01-29T16:39:23.530Z,75.42
2019-01-29T16:44:41.364Z,75.90
2019-01-29T16:49:59.695Z,75.71
2019-01-29T16:55:18.997Z,76.44
2019-01-29T17:00:37.528Z,76.03
2019-01-29T17:05:55.787Z,77.46
2019-01-29T17:11:13.465Z,78.00
2019-01-29T17:16:31.437Z,76.77
2019-01-29T17:21:49.698Z,76.12
2019-01-29T17:27:07.649Z,76.18
2019-01-29T17:32:30.537Z,77.51
2019-01-29T17:37:44.742Z,77.61
2019-01-29T17:43:03.349Z,78.45
2019-01-29T17:48:21.395Z,78.17
2019-01-29T17:53:38.703Z,78.62
2019-01-29T17:58:56.106Z,80.03
2019-01-29T18:04:13.784Z,79.71
2019-01-29T18:09:32.088Z,79.12
2019-01-29T18:14:51.443Z,79.43
2019-01-29T18:20:09.532Z,80.52
2019-01-29T18:25:27.446Z,79.93
2019-01-29T18:30:45.026Z,80.07
2019-01-29T18:36:03.860Z,80.70
2019-01-29T18:41:21.864Z,80.16
2019-01-29T18:46:39.275Z,80.51
2019-01-29T18:51:57.560Z,80.41
2019-01-29T18:57:15.227Z,80.42
2019-01-29T19:02:33.311Z,79.51
2019-01-29T19:07:51.588Z,80.38
2019-01-29T19:13:09.813Z,81.60
2019-01-29T19:18:27.728Z,81.81
2019-01-29T19:23:45.769Z,81.30
2019-01-29T19:29:03.437Z,81.82
2019-01-29T19:34:20.678Z,81.35
2019-01-29T19:39:39.961Z,81.77
2019-01-29T19:44:57.882Z,81.12
2019-01-29T19:50:17.122Z,82.14
2019-01-29T19:55:34.907Z,82.07
2019-01-29T20:00:52.443Z,81.80
2019-01-29T20:06:11.115Z,82.45
2019-01-29T20:11:29.809Z,81.93
2019-01-29T20:16:48.511Z,82.06
2019-01-29T20:22:07.256Z,81.69
2019-01-29T20:27:24.667Z,81.99
2019-01-29T20:32:42.295Z,81.53
2019-01-29T20:38:00.394Z,81.62
2019-01-29T20:43:18.797Z,81.89
2019-01-29T20:48:36.775Z,82.20
2019-01-29T20:53:56.107Z,82.15
2019-01-29T20:59:14.033Z,82.11
2019-01-29T21:04:31.773Z,83.01
2019-01-29T21:09:50.013Z,82.31
2019-01-29T21:15:08.843Z,82.10
2019-01-29T21:20:30.073Z,81.71
2019-01-29T21:25:48.216Z,82.51
2019-01-29T21:31:08.073Z,81.83
2019-01-29T21:36:24.206Z,81.70
2019-01-29T21:41:42.006Z,82.04
2019-01-29T21:47:00.242Z,81.65
2019-01-29T21:52:17.943Z,81.85
2019-01-29T21:57:36.914Z,82.12
2019-01-29T22:02:56.252Z,82.27
2019-01-29T22:08:14.785Z,82.29
2019-01-29T22:13:32.557Z,82.17
2019-01-29T22:18:49.825Z,82.19
2019-01-29T22:24:07.245Z,82.72
2019-01-29T22:29:25.184Z,82.08
2019-01-29T22:34:42.609Z,82.47
2019-01-29T22:39:59.833Z,81.99
2019-01-29T22:45:17.508Z,81.96
2019-01-29T22:50:37.874Z,81.90
2019-01-29T22:55:55.632Z,82.80
2019-01-29T23:01:22.236Z,82.55
2019-01-29T23:06:51.306Z,82.41
2019-01-29T23:12:08.965Z,82.45
2019-01-29T23:17:26.897Z,82.13
2019-01-29T23:22:45.117Z,82.26
2019-01-29T23:28:02.717Z,82.25
2019-01-29T23:33:20.390Z,82.46
2019-01-29T23:38:38.414Z,82.79
2019-01-29T23:43:55.907Z,83.31
2019-01-29T23:49:13.691Z,82.98
2019-01-29T23:54:30.948Z,83.06
2019-01-29T23:59:53.619Z,82.35
